sensor_id;sensor_type;location;lat;lon;timestamp;temperature;humidity
43858;DHT22;29507;51.284;5.758;2022-07-23T00:01:19;15.40;99.90
43858;DHT22;29507;51.284;5.758;2022-07-23T00:03:45;15.30;99.90
43858;DHT22;29507;51.284;5.758;2022-07-23T00:06:10;15.20;99.90
43858;DHT22;29507;51.284;5.758;2022-07-23T00:08:36;15.20;99.90
43858;DHT22;29507;51.284;5.758;2022-07-23T00:11:02;15.10;99.90
43858;DHT22;29507;51.284;5.758;2022-07-23T00:13:28;15.00;99.90
43858;DHT22;29507;51.284;5.758;2022-07-23T00:15:54;14.90;99.90
43858;DHT22;29507;51.284;5.758;2022-07-23T00:18:19;14.90;99.90
43858;DHT22;29507;51.284;5.758;2022-07-23T00:20:48;14.90;99.90
43858;DHT22;29507;51.284;5.758;2022-07-23T00:23:14;14.90;99.90
43858;DHT22;29507;51.284;5.758;2022-07-23T00:25:40;14.80;99.90
43858;DHT22;29507;51.284;5.758;2022-07-23T00:28:06;14.70;99.90
43858;DHT22;29507;51.284;5.758;2022-07-23T00:30:32;14.70;99.90
43858;DHT22;29507;51.284;5.758;2022-07-23T00:33:00;14.70;99.90
43858;DHT22;29507;51.284;5.758;2022-07-23T00:35:28;14.70;99.90
43858;DHT22;29507;51.284;5.758;2022-07-23T00:37:55;14.70;99.90
43858;DHT22;29507;51.284;5.758;2022-07-23T00:40:21;14.70;99.90
43858;DHT22;29507;51.284;5.758;2022-07-23T00:42:47;14.70;99.90
43858;DHT22;29507;51.284;5.758;2022-07-23T00:45:12;14.80;99.90
43858;DHT22;29507;51.284;5.758;2022-07-23T00:47:38;14.80;99.90
43858;DHT22;29507;51.284;5.758;2022-07-23T00:50:06;14.80;99.90
43858;DHT22;29507;51.284;5.758;2022-07-23T00:52:32;14.70;99.90
43858;DHT22;29507;51.284;5.758;2022-07-23T00:54:58;14.70;99.90
43858;DHT22;29507;51.284;5.758;2022-07-23T00:57:24;14.70;99.90
43858;DHT22;29507;51.284;5.758;2022-07-23T00:59:50;14.60;99.90
43858;DHT22;29507;51.284;5.758;2022-07-23T01:02:16;14.60;99.90
43858;DHT22;29507;51.284;5.758;2022-07-23T01:04:41;14.60;99.90
43858;DHT22;29507;51.284;5.758;2022-07-23T01:07:07;14.50;99.90
43858;DHT22;29507;51.284;5.758;2022-07-23T01:09:33;14.50;99.90
43858;DHT22;29507;51.284;5.758;2022-07-23T01:11:59;14.50;99.90
43858;DHT22;29507;51.284;5.758;2022-07-23T01:14:25;14.50;99.90
43858;DHT22;29507;51.284;5.758;2022-07-23T01:16:50;14.40;99.90
43858;DHT22;29507;51.284;5.758;2022-07-23T01:19:19;14.30;99.90
43858;DHT22;29507;51.284;5.758;2022-07-23T01:21:50;14.30;99.90
43858;DHT22;29507;51.284;5.758;2022-07-23T01:24:16;14.30;99.90
43858;DHT22;29507;51.284;5.758;2022-07-23T01:26:43;14.30;99.90
43858;DHT22;29507;51.284;5.758;2022-07-23T01:29:10;14.30;99.90
43858;DHT22;29507;51.284;5.758;2022-07-23T01:31:36;14.30;99.90
43858;DHT22;29507;51.284;5.758;2022-07-23T01:34:01;14.20;99.90
43858;DHT22;29507;51.284;5.758;2022-07-23T01:36:27;14.10;99.90
43858;DHT22;29507;51.284;5.758;2022-07-23T01:38:53;14.10;99.90
43858;DHT22;29507;51.284;5.758;2022-07-23T01:41:19;14.10;99.90
43858;DHT22;29507;51.284;5.758;2022-07-23T01:43:45;14.10;99.90
43858;DHT22;29507;51.284;5.758;2022-07-23T01:46:11;14.10;99.90
43858;DHT22;29507;51.284;5.758;2022-07-23T01:48:36;14.10;99.90
43858;DHT22;29507;51.284;5.758;2022-07-23T01:51:02;14.10;99.90
43858;DHT22;29507;51.284;5.758;2022-07-23T01:53:31;14.10;99.90
43858;DHT22;29507;51.284;5.758;2022-07-23T01:55:57;14.10;99.90
43858;DHT22;29507;51.284;5.758;2022-07-23T01:58:24;14.10;99.90
43858;DHT22;29507;51.284;5.758;2022-07-23T02:00:49;14.00;99.90
43858;DHT22;29507;51.284;5.758;2022-07-23T02:03:15;14.00;99.90
43858;DHT22;29507;51.284;5.758;2022-07-23T02:05:40;14.00;99.90
43858;DHT22;29507;51.284;5.758;2022-07-23T02:08:06;14.00;99.90
43858;DHT22;29507;51.284;5.758;2022-07-23T02:10:32;13.90;99.90
43858;DHT22;29507;51.284;5.758;2022-07-23T02:12:57;14.00;99.90
43858;DHT22;29507;51.284;5.758;2022-07-23T02:15:23;13.90;99.90
43858;DHT22;29507;51.284;5.758;2022-07-23T02:17:49;13.90;99.90
43858;DHT22;29507;51.284;5.758;2022-07-23T02:20:14;13.80;99.90
43858;DHT22;29507;51.284;5.758;2022-07-23T02:22:40;13.80;99.90
43858;DHT22;29507;51.284;5.758;2022-07-23T02:25:07;13.80;99.90
43858;DHT22;29507;51.284;5.758;2022-07-23T02:27:33;13.80;99.90
43858;DHT22;29507;51.284;5.758;2022-07-23T02:29:59;13.80;99.90
43858;DHT22;29507;51.284;5.758;2022-07-23T02:32:25;13.70;99.90
43858;DHT22;29507;51.284;5.758;2022-07-23T02:34:51;13.70;99.90
43858;DHT22;29507;51.284;5.758;2022-07-23T02:37:16;13.70;99.90
43858;DHT22;29507;51.284;5.758;2022-07-23T02:39:43;13.60;99.90
43858;DHT22;29507;51.284;5.758;2022-07-23T02:42:08;13.60;99.90
43858;DHT22;29507;51.284;5.758;2022-07-23T02:44:34;13.50;99.90
43858;DHT22;29507;51.284;5.758;2022-07-23T02:47:00;13.60;99.90
43858;DHT22;29507;51.284;5.758;2022-07-23T02:49:28;13.50;99.90
43858;DHT22;29507;51.284;5.758;2022-07-23T02:51:54;13.50;99.90
43858;DHT22;29507;51.284;5.758;2022-07-23T02:54:19;13.50;99.90
43858;DHT22;29507;51.284;5.758;2022-07-23T02:56:45;13.40;99.90
43858;DHT22;29507;51.284;5.758;2022-07-23T02:59:11;13.40;99.90
43858;DHT22;29507;51.284;5.758;2022-07-23T03:01:37;13.30;99.90
43858;DHT22;29507;51.284;5.758;2022-07-23T03:04:02;13.30;99.90
43858;DHT22;29507;51.284;5.758;2022-07-23T03:06:28;13.20;99.90
43858;DHT22;29507;51.284;5.758;2022-07-23T03:08:53;13.20;99.90
43858;DHT22;29507;51.284;5.758;2022-07-23T03:11:19;13.20;99.90
43858;DHT22;29507;51.284;5.758;2022-07-23T03:13:45;13.20;99.90
43858;DHT22;29507;51.284;5.758;2022-07-23T03:16:11;13.20;99.90
43858;DHT22;29507;51.284;5.758;2022-07-23T03:18:36;13.20;99.90
43858;DHT22;29507;51.284;5.758;2022-07-23T03:21:02;13.20;99.90
43858;DHT22;29507;51.284;5.758;2022-07-23T03:23:28;13.20;99.90
43858;DHT22;29507;51.284;5.758;2022-07-23T03:25:53;13.10;99.90
43858;DHT22;29507;51.284;5.758;2022-07-23T03:28:19;13.10;99.90
43858;DHT22;29507;51.284;5.758;2022-07-23T03:30:46;13.10;99.90
43858;DHT22;29507;51.284;5.758;2022-07-23T03:33:13;13.00;99.90
43858;DHT22;29507;51.284;5.758;2022-07-23T03:35:39;13.00;99.90
43858;DHT22;29507;51.284;5.758;2022-07-23T03:38:04;12.90;99.90
43858;DHT22;29507;51.284;5.758;2022-07-23T03:40:30;12.90;99.90
43858;DHT22;29507;51.284;5.758;2022-07-23T03:42:56;12.90;99.90
43858;DHT22;29507;51.284;5.758;2022-07-23T03:45:21;12.80;99.90
43858;DHT22;29507;51.284;5.758;2022-07-23T03:47:47;12.80;99.90
43858;DHT22;29507;51.284;5.758;2022-07-23T03:50:13;12.90;99.90
43858;DHT22;29507;51.284;5.758;2022-07-23T03:52:38;12.90;99.90
43858;DHT22;29507;51.284;5.758;2022-07-23T03:55:04;12.90;99.90
43858;DHT22;29507;51.284;5.758;2022-07-23T03:57:30;12.90;99.90
43858;DHT22;29507;51.284;5.758;2022-07-23T03:59:56;12.90;99.90
43858;DHT22;29507;51.284;5.758;2022-07-23T04:02:21;12.90;99.90
43858;DHT22;29507;51.284;5.758;2022-07-23T04:04:47;12.90;99.90
43858;DHT22;29507;51.284;5.758;2022-07-23T04:07:13;13.00;99.90
43858;DHT22;29507;51.284;5.758;2022-07-23T04:09:39;13.00;99.90
43858;DHT22;29507;51.284;5.758;2022-07-23T04:12:06;13.00;99.90
43858;DHT22;29507;51.284;5.758;2022-07-23T04:14:32;13.00;99.90
43858;DHT22;29507;51.284;5.758;2022-07-23T04:17:00;13.00;99.90
43858;DHT22;29507;51.284;5.758;2022-07-23T04:19:29;13.10;99.90
43858;DHT22;29507;51.284;5.758;2022-07-23T04:21:56;13.10;99.90
43858;DHT22;29507;51.284;5.758;2022-07-23T04:24:21;13.10;99.90
43858;DHT22;29507;51.284;5.758;2022-07-23T04:26:52;13.20;99.90
43858;DHT22;29507;51.284;5.758;2022-07-23T04:29:18;13.20;99.90
43858;DHT22;29507;51.284;5.758;2022-07-23T04:31:44;13.20;99.90
43858;DHT22;29507;51.284;5.758;2022-07-23T04:34:09;13.30;99.90
43858;DHT22;29507;51.284;5.758;2022-07-23T04:36:35;13.30;99.90
43858;DHT22;29507;51.284;5.758;2022-07-23T04:39:01;13.40;99.90
43858;DHT22;29507;51.284;5.758;2022-07-23T04:41:26;13.40;99.90
43858;DHT22;29507;51.284;5.758;2022-07-23T04:43:52;13.50;99.90
43858;DHT22;29507;51.284;5.758;2022-07-23T04:46:18;13.50;99.90
43858;DHT22;29507;51.284;5.758;2022-07-23T04:48:43;13.60;99.90
43858;DHT22;29507;51.284;5.758;2022-07-23T04:51:09;13.60;99.90
43858;DHT22;29507;51.284;5.758;2022-07-23T04:53:37;13.60;99.90
43858;DHT22;29507;51.284;5.758;2022-07-23T04:56:03;13.70;99.90
43858;DHT22;29507;51.284;5.758;2022-07-23T04:58:29;13.70;99.90
43858;DHT22;29507;51.284;5.758;2022-07-23T05:00:57;13.70;99.90
43858;DHT22;29507;51.284;5.758;2022-07-23T05:03:23;13.80;99.90
43858;DHT22;29507;51.284;5.758;2022-07-23T05:05:49;13.90;99.90
43858;DHT22;29507;51.284;5.758;2022-07-23T05:08:15;13.90;99.90
43858;DHT22;29507;51.284;5.758;2022-07-23T05:10:40;14.00;99.90
43858;DHT22;29507;51.284;5.758;2022-07-23T05:13:06;14.10;99.90
43858;DHT22;29507;51.284;5.758;2022-07-23T05:15:31;14.10;99.90
43858;DHT22;29507;51.284;5.758;2022-07-23T05:17:57;14.20;99.90
43858;DHT22;29507;51.284;5.758;2022-07-23T05:20:23;14.20;99.90
43858;DHT22;29507;51.284;5.758;2022-07-23T05:22:48;14.30;99.90
43858;DHT22;29507;51.284;5.758;2022-07-23T05:25:16;14.40;99.90
43858;DHT22;29507;51.284;5.758;2022-07-23T05:27:42;14.40;99.90
43858;DHT22;29507;51.284;5.758;2022-07-23T05:30:08;14.50;99.90
43858;DHT22;29507;51.284;5.758;2022-07-23T05:32:37;14.60;99.90
43858;DHT22;29507;51.284;5.758;2022-07-23T05:35:04;14.60;99.90
43858;DHT22;29507;51.284;5.758;2022-07-23T05:37:33;14.80;99.90
43858;DHT22;29507;51.284;5.758;2022-07-23T05:40:03;14.80;99.90
43858;DHT22;29507;51.284;5.758;2022-07-23T05:42:29;14.90;99.90
43858;DHT22;29507;51.284;5.758;2022-07-23T05:44:55;14.90;99.90
43858;DHT22;29507;51.284;5.758;2022-07-23T05:47:20;15.00;99.90
43858;DHT22;29507;51.284;5.758;2022-07-23T05:49:46;15.10;99.90
43858;DHT22;29507;51.284;5.758;2022-07-23T05:52:15;15.20;99.90
43858;DHT22;29507;51.284;5.758;2022-07-23T05:54:40;15.30;99.90
43858;DHT22;29507;51.284;5.758;2022-07-23T05:57:08;15.80;99.90
43858;DHT22;29507;51.284;5.758;2022-07-23T05:59:33;16.40;99.90
43858;DHT22;29507;51.284;5.758;2022-07-23T06:01:59;16.80;99.90
43858;DHT22;29507;51.284;5.758;2022-07-23T06:04:25;17.30;99.90
43858;DHT22;29507;51.284;5.758;2022-07-23T06:06:53;17.80;99.90
43858;DHT22;29507;51.284;5.758;2022-07-23T06:09:19;18.10;99.90
43858;DHT22;29507;51.284;5.758;2022-07-23T06:11:45;18.20;99.90
43858;DHT22;29507;51.284;5.758;2022-07-23T06:14:10;18.40;99.90
43858;DHT22;29507;51.284;5.758;2022-07-23T06:16:39;18.60;99.90
43858;DHT22;29507;51.284;5.758;2022-07-23T06:19:04;18.80;99.90
43858;DHT22;29507;51.284;5.758;2022-07-23T06:21:30;19.20;99.90
43858;DHT22;29507;51.284;5.758;2022-07-23T06:23:56;19.50;99.90
43858;DHT22;29507;51.284;5.758;2022-07-23T06:26:21;19.70;99.90
43858;DHT22;29507;51.284;5.758;2022-07-23T06:28:47;19.90;99.90
43858;DHT22;29507;51.284;5.758;2022-07-23T06:34:12;20.30;99.90
43858;DHT22;29507;51.284;5.758;2022-07-23T06:36:38;20.60;99.90
43858;DHT22;29507;51.284;5.758;2022-07-23T06:39:03;20.80;99.90
43858;DHT22;29507;51.284;5.758;2022-07-23T06:41:31;20.80;99.90
43858;DHT22;29507;51.284;5.758;2022-07-23T06:43:57;20.80;99.90
43858;DHT22;29507;51.284;5.758;2022-07-23T06:46:23;21.20;99.90
43858;DHT22;29507;51.284;5.758;2022-07-23T06:48:48;21.60;99.90
43858;DHT22;29507;51.284;5.758;2022-07-23T06:51:17;21.90;99.90
43858;DHT22;29507;51.284;5.758;2022-07-23T06:53:43;22.20;99.90
43858;DHT22;29507;51.284;5.758;2022-07-23T06:56:08;22.50;97.40
43858;DHT22;29507;51.284;5.758;2022-07-23T06:58:34;22.40;97.50
43858;DHT22;29507;51.284;5.758;2022-07-23T07:01:03;22.30;97.80
43858;DHT22;29507;51.284;5.758;2022-07-23T07:03:28;22.40;95.00
43858;DHT22;29507;51.284;5.758;2022-07-23T07:05:54;22.40;95.50
43858;DHT22;29507;51.284;5.758;2022-07-23T07:08:19;22.60;95.30
43858;DHT22;29507;51.284;5.758;2022-07-23T07:10:48;22.90;93.20
43858;DHT22;29507;51.284;5.758;2022-07-23T07:13:14;23.10;94.00
43858;DHT22;29507;51.284;5.758;2022-07-23T07:15:39;23.50;91.70
43858;DHT22;29507;51.284;5.758;2022-07-23T07:18:05;23.40;90.00
43858;DHT22;29507;51.284;5.758;2022-07-23T07:20:30;23.40;89.20
43858;DHT22;29507;51.284;5.758;2022-07-23T07:22:56;23.60;90.10
43858;DHT22;29507;51.284;5.758;2022-07-23T07:25:22;23.90;87.20
43858;DHT22;29507;51.284;5.758;2022-07-23T07:27:47;23.80;83.40
43858;DHT22;29507;51.284;5.758;2022-07-23T07:30:15;23.70;84.60
43858;DHT22;29507;51.284;5.758;2022-07-23T07:32:42;24.00;84.80
43858;DHT22;29507;51.284;5.758;2022-07-23T07:35:08;24.50;83.50
43858;DHT22;29507;51.284;5.758;2022-07-23T07:37:34;24.90;81.60
43858;DHT22;29507;51.284;5.758;2022-07-23T07:40:00;25.10;78.40
43858;DHT22;29507;51.284;5.758;2022-07-23T07:42:29;25.00;78.20
43858;DHT22;29507;51.284;5.758;2022-07-23T07:45:05;24.90;78.50
43858;DHT22;29507;51.284;5.758;2022-07-23T07:47:30;24.60;78.80
43858;DHT22;29507;51.284;5.758;2022-07-23T07:49:56;24.60;79.60
43858;DHT22;29507;51.284;5.758;2022-07-23T07:52:21;24.40;77.10
43858;DHT22;29507;51.284;5.758;2022-07-23T07:54:47;24.30;78.70
43858;DHT22;29507;51.284;5.758;2022-07-23T07:57:13;24.10;79.40
43858;DHT22;29507;51.284;5.758;2022-07-23T07:59:38;24.20;80.30
43858;DHT22;29507;51.284;5.758;2022-07-23T08:02:06;24.20;79.00
43858;DHT22;29507;51.284;5.758;2022-07-23T08:04:35;24.50;77.80
43858;DHT22;29507;51.284;5.758;2022-07-23T08:07:05;24.70;78.00
43858;DHT22;29507;51.284;5.758;2022-07-23T08:09:30;24.90;78.10
43858;DHT22;29507;51.284;5.758;2022-07-23T08:11:56;25.20;74.80
43858;DHT22;29507;51.284;5.758;2022-07-23T08:14:24;25.00;74.90
43858;DHT22;29507;51.284;5.758;2022-07-23T08:16:50;24.90;75.40
43858;DHT22;29507;51.284;5.758;2022-07-23T08:19:16;24.70;74.80
43858;DHT22;29507;51.284;5.758;2022-07-23T08:21:44;24.60;75.50
43858;DHT22;29507;51.284;5.758;2022-07-23T08:24:10;24.80;75.60
43858;DHT22;29507;51.284;5.758;2022-07-23T08:26:38;25.30;76.20
43858;DHT22;29507;51.284;5.758;2022-07-23T08:29:04;25.90;73.40
43858;DHT22;29507;51.284;5.758;2022-07-23T08:31:36;25.90;71.90
43858;DHT22;29507;51.284;5.758;2022-07-23T08:34:01;25.70;72.10
43858;DHT22;29507;51.284;5.758;2022-07-23T08:36:28;25.60;72.60
43858;DHT22;29507;51.284;5.758;2022-07-23T08:39:00;25.60;72.40
43858;DHT22;29507;51.284;5.758;2022-07-23T08:41:32;25.80;72.30
43858;DHT22;29507;51.284;5.758;2022-07-23T08:43:59;25.90;72.10
43858;DHT22;29507;51.284;5.758;2022-07-23T08:46:28;26.20;71.00
43858;DHT22;29507;51.284;5.758;2022-07-23T08:48:54;26.30;71.80
43858;DHT22;29507;51.284;5.758;2022-07-23T08:51:20;26.40;72.30
43858;DHT22;29507;51.284;5.758;2022-07-23T08:53:46;26.40;69.40
43858;DHT22;29507;51.284;5.758;2022-07-23T08:56:12;26.50;69.90
43858;DHT22;29507;51.284;5.758;2022-07-23T08:58:40;26.40;69.90
43858;DHT22;29507;51.284;5.758;2022-07-23T09:01:06;26.40;67.30
43858;DHT22;29507;51.284;5.758;2022-07-23T09:03:34;26.10;69.00
43858;DHT22;29507;51.284;5.758;2022-07-23T09:06:00;26.20;67.80
43858;DHT22;29507;51.284;5.758;2022-07-23T09:11:03;25.80;68.50
43858;DHT22;29507;51.284;5.758;2022-07-23T09:16:27;26.60;67.60
43858;DHT22;29507;51.284;5.758;2022-07-23T09:18:57;27.00;67.60
43858;DHT22;29507;51.284;5.758;2022-07-23T09:21:34;26.80;67.30
43858;DHT22;29507;51.284;5.758;2022-07-23T09:24:05;26.80;68.50
43858;DHT22;29507;51.284;5.758;2022-07-23T09:26:39;26.70;67.40
43858;DHT22;29507;51.284;5.758;2022-07-23T09:29:13;26.50;67.00
43858;DHT22;29507;51.284;5.758;2022-07-23T09:31:52;26.90;67.20
43858;DHT22;29507;51.284;5.758;2022-07-23T09:36:46;27.70;66.10
43858;DHT22;29507;51.284;5.758;2022-07-23T09:39:13;27.90;66.20
43858;DHT22;29507;51.284;5.758;2022-07-23T09:41:45;28.30;65.10
43858;DHT22;29507;51.284;5.758;2022-07-23T09:44:15;28.40;64.40
43858;DHT22;29507;51.284;5.758;2022-07-23T09:46:42;28.40;63.90
43858;DHT22;29507;51.284;5.758;2022-07-23T09:49:22;28.20;64.20
43858;DHT22;29507;51.284;5.758;2022-07-23T09:51:56;28.20;64.70
43858;DHT22;29507;51.284;5.758;2022-07-23T09:54:38;28.20;63.40
43858;DHT22;29507;51.284;5.758;2022-07-23T09:57:13;28.20;62.40
43858;DHT22;29507;51.284;5.758;2022-07-23T09:59:41;28.00;62.30
43858;DHT22;29507;51.284;5.758;2022-07-23T10:02:08;28.10;65.40
43858;DHT22;29507;51.284;5.758;2022-07-23T10:04:40;28.20;64.40
43858;DHT22;29507;51.284;5.758;2022-07-23T10:07:08;28.70;63.70
43858;DHT22;29507;51.284;5.758;2022-07-23T10:09:40;28.90;62.80
43858;DHT22;29507;51.284;5.758;2022-07-23T10:12:15;28.80;60.10
43858;DHT22;29507;51.284;5.758;2022-07-23T10:14:59;29.20;60.50
43858;DHT22;29507;51.284;5.758;2022-07-23T10:17:28;29.00;59.40
43858;DHT22;29507;51.284;5.758;2022-07-23T10:19:54;29.00;60.40
43858;DHT22;29507;51.284;5.758;2022-07-23T10:22:28;28.90;58.70
43858;DHT22;29507;51.284;5.758;2022-07-23T10:25:26;28.50;59.30
43858;DHT22;29507;51.284;5.758;2022-07-23T10:28:07;28.30;59.10
43858;DHT22;29507;51.284;5.758;2022-07-23T10:30:44;28.70;60.50
43858;DHT22;29507;51.284;5.758;2022-07-23T10:33:38;28.90;58.80
43858;DHT22;29507;51.284;5.758;2022-07-23T10:36:17;28.90;59.20
43858;DHT22;29507;51.284;5.758;2022-07-23T10:39:02;28.70;60.00
43858;DHT22;29507;51.284;5.758;2022-07-23T10:41:36;29.00;58.20
43858;DHT22;29507;51.284;5.758;2022-07-23T10:44:14;28.80;59.90
43858;DHT22;29507;51.284;5.758;2022-07-23T10:47:00;28.50;59.30
43858;DHT22;29507;51.284;5.758;2022-07-23T10:49:49;29.10;59.90
43858;DHT22;29507;51.284;5.758;2022-07-23T10:57:20;29.10;59.50
43858;DHT22;29507;51.284;5.758;2022-07-23T11:02:38;29.80;57.30
43858;DHT22;29507;51.284;5.758;2022-07-23T11:05:15;29.80;58.20
43858;DHT22;29507;51.284;5.758;2022-07-23T11:24:15;29.30;58.90
43858;DHT22;29507;51.284;5.758;2022-07-23T11:26:48;29.80;58.90
43858;DHT22;29507;51.284;5.758;2022-07-23T11:32:25;30.00;57.70
43858;DHT22;29507;51.284;5.758;2022-07-23T11:34:55;30.10;58.40
43858;DHT22;29507;51.284;5.758;2022-07-23T11:37:38;30.40;57.60
43858;DHT22;29507;51.284;5.758;2022-07-23T11:40:15;30.40;56.10
43858;DHT22;29507;51.284;5.758;2022-07-23T11:43:03;30.90;56.30
43858;DHT22;29507;51.284;5.758;2022-07-23T11:48:01;30.90;55.10
43858;DHT22;29507;51.284;5.758;2022-07-23T11:50:31;31.00;56.50
43858;DHT22;29507;51.284;5.758;2022-07-23T11:52:57;30.80;55.60
43858;DHT22;29507;51.284;5.758;2022-07-23T11:55:23;31.00;58.30
43858;DHT22;29507;51.284;5.758;2022-07-23T11:57:51;31.40;56.40
43858;DHT22;29507;51.284;5.758;2022-07-23T12:00:23;31.10;55.20
43858;DHT22;29507;51.284;5.758;2022-07-23T12:02:55;30.60;56.00
43858;DHT22;29507;51.284;5.758;2022-07-23T12:05:55;30.50;57.90
43858;DHT22;29507;51.284;5.758;2022-07-23T12:08:24;31.10;55.80
43858;DHT22;29507;51.284;5.758;2022-07-23T12:10:49;30.90;55.20
43858;DHT22;29507;51.284;5.758;2022-07-23T12:13:18;31.40;56.40
43858;DHT22;29507;51.284;5.758;2022-07-23T12:15:57;31.40;55.30
43858;DHT22;29507;51.284;5.758;2022-07-23T12:18:25;31.50;54.60
43858;DHT22;29507;51.284;5.758;2022-07-23T12:20:55;32.00;55.10
43858;DHT22;29507;51.284;5.758;2022-07-23T12:23:28;32.40;55.10
43858;DHT22;29507;51.284;5.758;2022-07-23T12:26:02;32.90;53.40
43858;DHT22;29507;51.284;5.758;2022-07-23T12:28:29;32.80;52.80
43858;DHT22;29507;51.284;5.758;2022-07-23T12:30:57;32.70;53.00
43858;DHT22;29507;51.284;5.758;2022-07-23T12:33:37;32.60;53.20
43858;DHT22;29507;51.284;5.758;2022-07-23T12:36:10;32.40;53.80
43858;DHT22;29507;51.284;5.758;2022-07-23T12:38:39;32.00;53.90
43858;DHT22;29507;51.284;5.758;2022-07-23T12:41:05;31.20;54.30
43858;DHT22;29507;51.284;5.758;2022-07-23T12:43:33;30.30;56.70
43858;DHT22;29507;51.284;5.758;2022-07-23T12:46:12;30.90;56.30
43858;DHT22;29507;51.284;5.758;2022-07-23T12:51:27;32.40;54.50
43858;DHT22;29507;51.284;5.758;2022-07-23T12:54:06;32.80;53.40
43858;DHT22;29507;51.284;5.758;2022-07-23T12:56:40;32.50;53.60
43858;DHT22;29507;51.284;5.758;2022-07-23T12:59:11;32.50;53.40
43858;DHT22;29507;51.284;5.758;2022-07-23T13:01:42;32.90;53.70
43858;DHT22;29507;51.284;5.758;2022-07-23T13:04:18;33.50;53.20
43858;DHT22;29507;51.284;5.758;2022-07-23T13:06:45;33.70;51.10
43858;DHT22;29507;51.284;5.758;2022-07-23T13:09:13;33.70;52.60
43858;DHT22;29507;51.284;5.758;2022-07-23T13:11:42;33.70;52.60
43858;DHT22;29507;51.284;5.758;2022-07-23T13:14:08;33.70;52.00
43858;DHT22;29507;51.284;5.758;2022-07-23T13:16:34;33.60;51.20
43858;DHT22;29507;51.284;5.758;2022-07-23T13:19:00;33.20;51.30
43858;DHT22;29507;51.284;5.758;2022-07-23T13:21:27;32.80;51.60
43858;DHT22;29507;51.284;5.758;2022-07-23T13:23:53;32.10;52.90
43858;DHT22;29507;51.284;5.758;2022-07-23T13:26:20;31.60;55.20
43858;DHT22;29507;51.284;5.758;2022-07-23T13:28:46;32.10;54.10
43858;DHT22;29507;51.284;5.758;2022-07-23T13:31:12;33.40;53.60
43858;DHT22;29507;51.284;5.758;2022-07-23T13:33:41;34.00;52.40
43858;DHT22;29507;51.284;5.758;2022-07-23T13:36:07;35.00;50.90
43858;DHT22;29507;51.284;5.758;2022-07-23T13:38:32;35.70;50.70
43858;DHT22;29507;51.284;5.758;2022-07-23T13:41:01;35.80;49.40
43858;DHT22;29507;51.284;5.758;2022-07-23T13:43:28;35.40;50.50
43858;DHT22;29507;51.284;5.758;2022-07-23T13:45:54;35.80;50.20
43858;DHT22;29507;51.284;5.758;2022-07-23T13:48:20;36.10;48.20
43858;DHT22;29507;51.284;5.758;2022-07-23T13:50:47;35.80;47.90
43858;DHT22;29507;51.284;5.758;2022-07-23T13:53:16;35.00;48.20
43858;DHT22;29507;51.284;5.758;2022-07-23T13:55:42;34.10;49.30
43858;DHT22;29507;51.284;5.758;2022-07-23T13:58:14;32.70;51.20
43858;DHT22;29507;51.284;5.758;2022-07-23T14:00:43;32.90;51.70
43858;DHT22;29507;51.284;5.758;2022-07-23T14:03:09;33.00;51.00
43858;DHT22;29507;51.284;5.758;2022-07-23T14:05:35;32.90;51.50
43858;DHT22;29507;51.284;5.758;2022-07-23T14:08:01;33.10;51.50
43858;DHT22;29507;51.284;5.758;2022-07-23T14:10:26;33.50;51.50
43858;DHT22;29507;51.284;5.758;2022-07-23T14:12:53;33.90;51.70
43858;DHT22;29507;51.284;5.758;2022-07-23T14:15:25;33.90;50.80
43858;DHT22;29507;51.284;5.758;2022-07-23T14:17:52;33.70;50.50
43858;DHT22;29507;51.284;5.758;2022-07-23T14:20:18;33.60;50.90
43858;DHT22;29507;51.284;5.758;2022-07-23T14:22:44;33.70;50.30
43858;DHT22;29507;51.284;5.758;2022-07-23T14:25:10;33.00;50.20
43858;DHT22;29507;51.284;5.758;2022-07-23T14:27:36;31.70;52.70
43858;DHT22;29507;51.284;5.758;2022-07-23T14:30:04;30.80;54.10
43858;DHT22;29507;51.284;5.758;2022-07-23T14:32:29;30.10;56.60
43858;DHT22;29507;51.284;5.758;2022-07-23T14:34:55;29.70;55.20
43858;DHT22;29507;51.284;5.758;2022-07-23T14:37:21;29.20;55.40
43858;DHT22;29507;51.284;5.758;2022-07-23T14:39:47;28.90;56.30
43858;DHT22;29507;51.284;5.758;2022-07-23T14:42:13;28.60;56.70
43858;DHT22;29507;51.284;5.758;2022-07-23T14:44:38;28.40;57.60
43858;DHT22;29507;51.284;5.758;2022-07-23T14:47:05;28.40;58.10
43858;DHT22;29507;51.284;5.758;2022-07-23T14:49:31;28.60;57.80
43858;DHT22;29507;51.284;5.758;2022-07-23T14:51:58;28.60;57.30
43858;DHT22;29507;51.284;5.758;2022-07-23T14:54:27;28.50;57.20
43858;DHT22;29507;51.284;5.758;2022-07-23T14:56:57;28.50;58.70
43858;DHT22;29507;51.284;5.758;2022-07-23T14:59:24;28.80;57.40
43858;DHT22;29507;51.284;5.758;2022-07-23T15:01:49;28.90;58.00
43858;DHT22;29507;51.284;5.758;2022-07-23T15:04:15;28.90;57.80
43858;DHT22;29507;51.284;5.758;2022-07-23T15:06:41;29.00;57.20
43858;DHT22;29507;51.284;5.758;2022-07-23T15:09:07;29.20;56.70
43858;DHT22;29507;51.284;5.758;2022-07-23T15:11:35;29.30;56.70
43858;DHT22;29507;51.284;5.758;2022-07-23T15:14:07;29.50;56.80
43858;DHT22;29507;51.284;5.758;2022-07-23T15:16:33;29.40;56.60
43858;DHT22;29507;51.284;5.758;2022-07-23T15:19:00;29.00;57.20
43858;DHT22;29507;51.284;5.758;2022-07-23T15:21:28;28.60;57.50
43858;DHT22;29507;51.284;5.758;2022-07-23T15:23:57;28.40;58.10
43858;DHT22;29507;51.284;5.758;2022-07-23T15:26:27;28.20;58.20
43858;DHT22;29507;51.284;5.758;2022-07-23T15:28:53;27.90;58.40
43858;DHT22;29507;51.284;5.758;2022-07-23T15:31:18;27.70;59.50
43858;DHT22;29507;51.284;5.758;2022-07-23T15:33:44;27.60;59.70
43858;DHT22;29507;51.284;5.758;2022-07-23T15:36:12;27.60;59.80
43858;DHT22;29507;51.284;5.758;2022-07-23T15:38:38;27.60;59.10
43858;DHT22;29507;51.284;5.758;2022-07-23T15:41:04;27.60;59.30
43858;DHT22;29507;51.284;5.758;2022-07-23T15:43:29;27.70;60.20
43858;DHT22;29507;51.284;5.758;2022-07-23T15:45:56;27.70;59.10
43858;DHT22;29507;51.284;5.758;2022-07-23T15:48:22;27.70;59.30
43858;DHT22;29507;51.284;5.758;2022-07-23T15:50:48;27.60;59.30
43858;DHT22;29507;51.284;5.758;2022-07-23T15:53:14;27.60;60.30
43858;DHT22;29507;51.284;5.758;2022-07-23T15:55:43;27.70;60.10
43858;DHT22;29507;51.284;5.758;2022-07-23T15:58:11;27.70;60.90
43858;DHT22;29507;51.284;5.758;2022-07-23T16:00:37;27.80;59.80
43858;DHT22;29507;51.284;5.758;2022-07-23T16:03:03;27.90;60.00
43858;DHT22;29507;51.284;5.758;2022-07-23T16:05:28;27.80;60.20
43858;DHT22;29507;51.284;5.758;2022-07-23T16:07:54;27.80;61.40
43858;DHT22;29507;51.284;5.758;2022-07-23T16:10:20;27.90;59.60
43858;DHT22;29507;51.284;5.758;2022-07-23T16:12:46;28.00;59.30
43858;DHT22;29507;51.284;5.758;2022-07-23T16:15:12;28.20;59.10
43858;DHT22;29507;51.284;5.758;2022-07-23T16:17:38;28.30;59.10